createdAt,value
2018-09-17T00:01:58.175Z,96006.38
2018-09-17T00:04:24.152Z,96009.70
2018-09-17T00:06:50.139Z,96008.73
2018-09-17T00:09:16.120Z,96012.88
2018-09-17T00:11:42.104Z,96008.73
2018-09-17T00:14:08.084Z,96008.73
2018-09-17T00:16:34.067Z,96008.33
2018-09-17T00:19:00.044Z,96005.16
2018-09-17T00:21:26.028Z,96002.95
2018-09-17T00:23:52.002Z,96007.10
2018-09-17T00:26:17.993Z,96001.58
2018-09-17T00:28:43.978Z,96006.32
2018-09-17T00:31:09.960Z,96004.12
2018-09-17T00:33:35.933Z,96007.05
2018-09-17T00:36:01.945Z,96004.06
2018-09-17T00:38:27.920Z,96001.71
2018-09-17T00:40:53.904Z,96009.19
2018-09-17T00:43:19.877Z,96002.44
2018-09-17T00:45:45.862Z,96000.69
2018-09-17T00:48:11.843Z,95999.87
2018-09-17T00:50:37.820Z,96001.25
2018-09-17T00:53:03.804Z,95999.62
2018-09-17T00:55:29.786Z,96008.31
2018-09-17T00:57:55.801Z,96010.52
2018-09-17T01:00:21.784Z,96011.48
2018-09-17T01:02:47.755Z,96015.63
2018-09-17T01:05:13.774Z,96010.52
2018-09-17T01:07:39.761Z,96010.92
2018-09-17T01:10:05.743Z,96014.09
2018-09-17T01:12:31.728Z,96007.18
2018-09-17T01:14:57.706Z,96002.22
2018-09-17T01:17:23.703Z,96000.03
2018-09-17T01:19:49.683Z,96002.38
2018-09-17T01:22:15.656Z,95998.23
2018-09-17T01:24:41.645Z,96002.22
2018-09-17T01:27:07.629Z,95997.45
2018-09-17T01:29:33.612Z,95997.05
2018-09-17T01:31:59.584Z,96001.35
2018-09-17T01:34:25.563Z,96004.31
2018-09-17T01:36:51.548Z,96004.31
2018-09-17T01:39:17.536Z,96000.33
2018-09-17T01:41:43.513Z,95998.53
2018-09-17T01:44:09.493Z,95997.34
2018-09-17T01:46:35.487Z,96005.22
2018-09-17T01:49:01.446Z,96001.48
2018-09-17T01:51:27.428Z,95998.31
2018-09-17T01:53:53.405Z,95999.30
2018-09-17T01:56:19.388Z,95991.00
2018-09-17T01:58:45.370Z,95986.45
2018-09-17T02:01:11.357Z,95985.07
2018-09-17T02:03:37.349Z,95983.94
2018-09-17T02:06:03.334Z,95984.91
2018-09-17T02:08:29.347Z,95983.53
2018-09-17T02:10:55.290Z,95981.74
2018-09-17T02:13:21.268Z,95979.39
2018-09-17T02:15:47.251Z,95981.55
2018-09-17T02:18:13.235Z,95984.72
2018-09-17T02:20:39.205Z,95985.31
2018-09-17T02:23:05.190Z,95986.70
2018-09-17T02:25:31.182Z,95981.34
2018-09-17T02:27:57.152Z,95988.81
2018-09-17T02:30:23.148Z,95989.41
2018-09-17T02:32:49.133Z,95991.36
2018-09-17T02:35:15.115Z,95989.16
2018-09-17T02:37:41.106Z,95991.70
2018-09-17T02:40:07.091Z,95991.30
2018-09-17T02:42:33.081Z,95995.84
2018-09-17T02:44:59.064Z,95992.27
2018-09-17T02:47:25.036Z,95991.87
2018-09-17T02:49:51.013Z,95990.67
2018-09-17T02:52:16.992Z,95991.05
2018-09-17T02:54:42.979Z,95993.03
2018-09-17T02:57:08.968Z,95987.91
2018-09-17T02:59:34.941Z,95991.05
2018-09-17T03:02:00.922Z,95996.02
2018-09-17T03:04:26.906Z,95994.63
2018-09-17T03:06:52.890Z,95989.92
2018-09-17T03:09:18.874Z,95995.03
2018-09-17T03:11:44.845Z,96000.97
2018-09-17T03:14:10.826Z,96005.67
2018-09-17T03:16:36.814Z,96007.47
2018-09-17T03:19:02.797Z,96004.14
2018-09-17T03:21:28.819Z,96009.66
2018-09-17T03:23:54.795Z,96010.64
2018-09-17T03:26:20.770Z,96016.73
2018-09-17T03:28:46.754Z,96012.37
2018-09-17T03:31:12.774Z,96013.75
2018-09-17T03:33:38.725Z,96020.25
2018-09-17T03:36:04.711Z,96016.67
2018-09-17T03:38:30.694Z,96014.48
2018-09-17T03:40:56.684Z,96012.47
2018-09-17T03:43:22.652Z,96015.64
2018-09-17T03:45:48.645Z,96010.12
2018-09-17T03:48:14.641Z,96015.02
2018-09-17T03:50:40.667Z,96016.80
2018-09-17T03:53:06.646Z,96016.80
2018-09-17T03:55:32.637Z,96017.78
2018-09-17T03:57:58.617Z,96022.70
2018-09-17T04:00:24.632Z,96022.33
2018-09-17T04:02:50.611Z,96025.09
2018-09-17T04:05:16.594Z,96032.38
2018-09-17T04:07:42.576Z,96031.80
2018-09-17T04:10:08.549Z,96027.66
2018-09-17T04:12:34.541Z,96027.66
2018-09-17T04:15:00.520Z,96028.64
2018-09-17T04:17:26.496Z,96032.22
2018-09-17T04:19:52.515Z,96032.63
2018-09-17T04:22:18.555Z,96034.41
2018-09-17T04:24:44.556Z,96041.53
2018-09-17T04:27:10.531Z,96037.45
2018-09-17T04:29:36.524Z,96040.27
2018-09-17T04:32:02.510Z,96033.26
2018-09-17T04:34:28.487Z,96035.61
2018-09-17T04:36:54.472Z,96038.37
2018-09-17T04:39:20.449Z,96039.76
2018-09-17T04:41:46.584Z,96045.50
2018-09-17T04:44:12.563Z,96047.53
2018-09-17T04:46:38.542Z,96047.34
2018-09-17T04:49:04.556Z,96044.48
2018-09-17T04:51:30.543Z,96051.80
2018-09-17T04:53:56.521Z,96047.41
2018-09-17T04:56:22.507Z,96053.49
2018-09-17T04:58:48.528Z,96048.97
2018-09-17T05:01:14.532Z,96048.38
2018-09-17T05:03:40.517Z,96051.55
2018-09-17T05:06:13.660Z,96043.88
2018-09-17T05:08:39.696Z,96046.89
2018-09-17T05:11:05.675Z,96051.45
2018-09-17T05:13:31.802Z,96053.23
2018-09-17T05:15:57.630Z,96048.33
2018-09-17T05:18:23.623Z,96046.19
2018-09-17T05:20:49.814Z,96050.17
2018-09-17T05:23:15.851Z,96047.41
2018-09-17T05:25:41.832Z,96051.31
2018-09-17T05:28:07.814Z,96048.73
2018-09-17T05:30:33.796Z,96042.18
2018-09-17T05:32:59.781Z,96045.20
2018-09-17T05:35:25.813Z,96049.55
2018-09-17T05:37:51.789Z,96050.30
2018-09-17T05:40:17.761Z,96052.00
2018-09-17T05:42:43.736Z,96045.22
2018-09-17T05:45:09.709Z,96049.72
2018-09-17T05:47:35.689Z,96053.80
2018-09-17T05:50:01.666Z,96051.95
2018-09-17T05:52:27.655Z,96053.34
2018-09-17T05:54:53.636Z,96057.23
2018-09-17T05:57:19.625Z,96052.77
2018-09-17T05:59:45.685Z,96055.91
2018-09-17T06:02:11.625Z,96053.80
2018-09-17T06:04:37.586Z,96065.83
2018-09-17T06:07:03.613Z,96061.50
2018-09-17T06:09:29.575Z,96065.32
2018-09-17T06:11:55.673Z,96064.72
2018-09-17T06:14:21.563Z,96071.88
2018-09-17T06:16:47.559Z,96080.58
2018-09-17T06:19:13.536Z,96079.81
2018-09-17T06:21:39.518Z,96080.58
2018-09-17T06:24:05.501Z,96076.43
2018-09-17T06:26:31.532Z,96077.87
2018-09-17T06:28:57.492Z,96081.01
2018-09-17T06:31:23.507Z,96077.68
2018-09-17T06:33:49.462Z,96082.39
2018-09-17T06:36:15.483Z,96082.58
2018-09-17T06:38:41.420Z,96082.17
2018-09-17T06:41:07.410Z,96088.27
2018-09-17T06:43:33.396Z,96089.64
2018-09-17T06:45:59.395Z,96083.34
2018-09-17T06:48:25.378Z,96095.17
2018-09-17T06:50:51.353Z,96093.00
2018-09-17T06:53:17.428Z,96092.19
2018-09-17T06:55:43.381Z,96092.34
2018-09-17T06:58:09.414Z,96097.47
2018-09-17T07:00:35.353Z,96090.97
2018-09-17T07:03:01.522Z,96093.73
2018-09-17T07:05:27.513Z,96090.62
2018-09-17T07:07:53.502Z,96097.15
2018-09-17T07:10:19.472Z,96093.63
2018-09-17T07:12:45.451Z,96100.53
2018-09-17T07:15:11.439Z,96096.80
2018-09-17T07:17:37.444Z,96105.09
2018-09-17T07:20:03.434Z,96107.66
2018-09-17T07:22:29.412Z,96105.30
2018-09-17T07:24:55.392Z,96109.86
2018-09-17T07:27:21.371Z,96108.88
2018-09-17T07:29:47.348Z,96104.33
2018-09-17T07:32:13.339Z,96104.73
2018-09-17T07:34:39.329Z,96106.69
2018-09-17T07:37:05.325Z,96104.95
2018-09-17T07:39:31.302Z,96107.16
2018-09-17T07:41:57.296Z,96102.03
2018-09-17T07:44:23.305Z,96098.70
2018-09-17T07:46:49.282Z,96100.47
2018-09-17T07:49:15.314Z,96099.48
2018-09-17T07:51:41.295Z,96097.13
2018-09-17T07:54:07.268Z,96095.59
2018-09-17T07:56:33.250Z,96095.75
2018-09-17T07:58:59.306Z,96093.96
2018-09-17T08:01:25.226Z,96091.20
2018-09-17T08:03:51.198Z,96088.22
2018-09-17T08:06:17.183Z,96089.60
2018-09-17T08:08:43.168Z,96080.34
2018-09-17T08:11:09.146Z,96081.53
2018-09-17T08:13:35.128Z,96076.98
2018-09-17T08:16:01.116Z,96078.14
2018-09-17T08:18:27.114Z,96071.59
2018-09-17T08:20:53.099Z,96077.68
2018-09-17T08:23:19.075Z,96068.98
2018-09-17T08:25:45.050Z,96066.63
2018-09-17T08:28:11.067Z,96065.25
2018-09-17T08:30:37.044Z,96062.48
2018-09-17T08:33:03.033Z,96060.69
2018-09-17T08:35:29.014Z,96057.15
2018-09-17T08:37:54.993Z,96050.81
2018-09-17T08:40:20.978Z,96048.20
2018-09-17T08:42:46.948Z,96044.47
2018-09-17T08:45:12.945Z,96044.47
2018-09-17T08:47:38.920Z,96045.44
2018-09-17T08:50:04.909Z,96045.84
2018-09-17T08:52:31.049Z,96044.87
2018-09-17T08:54:57.105Z,96043.49
2018-09-17T08:57:23.152Z,96038.94
2018-09-17T08:59:49.133Z,96032.03
2018-09-17T09:02:15.119Z,96032.23
2018-09-17T09:04:41.456Z,96029.47
2018-09-17T09:07:07.439Z,96023.94
2018-09-17T09:09:33.415Z,96030.03
2018-09-17T09:11:59.406Z,96025.89
2018-09-17T09:14:25.390Z,96014.59
2018-09-17T09:16:51.368Z,96015.00
2018-09-17T09:19:17.381Z,96015.81
2018-09-17T09:21:43.373Z,96012.23
2018-09-17T09:24:09.356Z,96010.45
2018-09-17T09:26:35.403Z,96006.71
2018-09-17T09:29:01.373Z,95999.80
2018-09-17T09:31:27.340Z,95994.28
2018-09-17T09:33:53.334Z,95999.80
2018-09-17T09:36:19.313Z,95995.50
2018-09-17T09:38:45.301Z,95998.07
2018-09-17T09:41:11.292Z,95996.12
2018-09-17T09:43:37.280Z,95991.98
2018-09-17T09:46:03.268Z,95991.57
2018-09-17T09:48:29.284Z,95987.67
2018-09-17T09:50:55.287Z,95981.74
2018-09-17T09:53:21.272Z,95978.98
2018-09-17T09:55:47.260Z,95979.39
2018-09-17T09:58:13.232Z,95973.51
2018-09-17T10:00:39.208Z,95979.03
2018-09-17T10:03:05.189Z,95970.75
2018-09-17T10:05:31.169Z,95971.56
2018-09-17T10:07:57.149Z,95977.09
2018-09-17T10:10:23.144Z,95965.38
2018-09-17T10:12:49.162Z,95966.20
2018-09-17T10:15:15.150Z,95959.70
2018-09-17T10:17:41.153Z,95965.62
2018-09-17T10:20:07.162Z,95967.02
2018-09-17T10:22:33.137Z,95961.08
2018-09-17T10:24:59.129Z,95952.03
2018-09-17T10:27:25.181Z,95953.82
2018-09-17T10:29:51.135Z,95953.20
2018-09-17T10:32:17.100Z,95953.82
2018-09-17T10:34:43.131Z,95952.66
2018-09-17T10:37:09.082Z,95957.05
2018-09-17T10:39:35.098Z,95949.16
2018-09-17T10:42:01.056Z,95947.38
2018-09-17T10:44:27.058Z,95943.64
2018-09-17T10:46:53.072Z,95946.40
2018-09-17T10:49:19.061Z,95936.73
2018-09-17T10:51:45.045Z,95941.09
2018-09-17T10:54:11.075Z,95943.28
2018-09-17T10:56:37.059Z,95938.84
2018-09-17T10:59:03.038Z,95935.86
2018-09-17T11:01:29.037Z,95930.69
2018-09-17T11:03:55.021Z,95927.88
2018-09-17T11:06:21.014Z,95937.70
2018-09-17T11:08:47.027Z,95928.80
2018-09-17T11:11:12.970Z,95932.13
2018-09-17T11:13:38.963Z,95929.36
2018-09-17T11:16:04.948Z,95925.22
2018-09-17T11:18:30.925Z,95927.00
2018-09-17T11:20:56.908Z,95921.67
2018-09-17T11:23:22.888Z,95924.24
2018-09-17T11:25:48.867Z,95918.31
2018-09-17T11:28:14.852Z,95919.69
2018-09-17T11:30:40.832Z,95915.95
2018-09-17T11:33:06.820Z,95922.45
2018-09-17T11:35:32.805Z,95916.77
2018-09-17T11:37:58.777Z,95921.89
2018-09-17T11:40:24.781Z,95917.75
2018-09-17T11:42:50.758Z,95912.22
2018-09-17T11:45:16.746Z,95909.45
2018-09-17T11:47:42.739Z,95907.86
2018-09-17T11:50:08.718Z,95906.86
2018-09-17T11:52:34.709Z,95902.14
2018-09-17T11:55:00.694Z,95904.09
2018-09-17T11:57:26.684Z,95893.45
2018-09-17T11:59:52.666Z,95893.64
2018-09-17T12:02:18.756Z,95888.52
2018-09-17T12:04:44.699Z,95890.28
2018-09-17T12:07:10.680Z,95890.47
2018-09-17T12:09:36.657Z,95887.30
2018-09-17T12:12:02.641Z,95887.30
2018-09-17T12:14:28.702Z,95883.16
2018-09-17T12:16:54.665Z,95880.97
2018-09-17T12:19:20.686Z,95873.90
2018-09-17T12:21:46.664Z,95869.75
2018-09-17T12:24:12.678Z,95871.14
2018-09-17T12:26:38.696Z,95868.94
2018-09-17T12:29:04.712Z,95872.27
2018-09-17T12:31:30.693Z,95873.48
2018-09-17T12:33:56.818Z,95867.56
2018-09-17T12:36:22.719Z,95862.03
2018-09-17T12:38:48.717Z,95861.63
2018-09-17T12:41:14.726Z,95857.48
2018-09-17T12:43:40.702Z,95859.68
2018-09-17T12:46:06.740Z,95856.52
2018-09-17T12:48:32.742Z,95857.33
2018-09-17T12:50:58.754Z,95851.96
2018-09-17T12:53:24.822Z,95852.56
2018-09-17T12:55:50.798Z,95847.41
2018-09-17T12:58:16.807Z,95844.27
2018-09-17T13:00:42.789Z,95839.13
2018-09-17T13:03:08.769Z,95841.52
2018-09-17T13:05:34.753Z,95840.13
2018-09-17T13:08:00.781Z,95834.20
2018-09-17T13:10:26.759Z,95830.84
2018-09-17T13:12:52.738Z,95833.60
2018-09-17T13:15:18.709Z,95832.41
2018-09-17T13:17:44.714Z,95825.91
2018-09-17T13:20:10.694Z,95819.98
2018-09-17T13:22:36.672Z,95815.43
2018-09-17T13:25:02.711Z,95806.17
2018-09-17T13:27:28.639Z,95808.36
2018-09-17T13:29:54.638Z,95807.14
2018-09-17T13:32:20.609Z,95807.95
2018-09-17T13:34:46.628Z,95813.48
2018-09-17T13:37:12.608Z,95811.91
2018-09-17T13:39:38.606Z,95809.49
2018-09-17T13:42:04.639Z,95811.19
2018-09-17T13:44:30.675Z,95804.12
2018-09-17T13:46:56.600Z,95804.17
2018-09-17T13:49:22.624Z,95802.43
2018-09-17T13:51:48.630Z,95802.48
2018-09-17T13:54:14.723Z,95799.72
2018-09-17T13:56:40.666Z,95794.41
2018-09-17T13:59:06.762Z,95794.27
2018-09-17T14:01:32.765Z,95791.16
2018-09-17T14:03:58.737Z,95786.03
2018-09-17T14:06:24.753Z,95779.53
2018-09-17T14:08:50.724Z,95776.93
2018-09-17T14:11:16.762Z,95776.77
2018-09-17T14:13:42.762Z,95776.58
2018-09-17T14:16:08.797Z,95773.44
2018-09-17T14:18:34.770Z,95772.05
2018-09-17T14:21:00.765Z,95769.09
2018-09-17T14:23:26.773Z,95775.44
2018-09-17T14:25:52.784Z,95777.48
2018-09-17T14:28:18.756Z,95778.50
2018-09-17T14:30:44.728Z,95780.30
2018-09-17T14:33:10.768Z,95775.34
2018-09-17T14:35:36.840Z,95775.62
2018-09-17T14:38:02.701Z,95777.06
2018-09-17T14:40:28.676Z,95781.30
2018-09-17T14:42:54.659Z,95780.53
2018-09-17T14:45:20.645Z,95784.06
2018-09-17T14:47:46.616Z,95777.82
2018-09-17T14:50:12.628Z,95772.60
2018-09-17T14:52:38.620Z,95769.44
2018-09-17T14:55:04.601Z,95772.39
2018-09-17T14:57:30.580Z,95770.60
2018-09-17T14:59:56.588Z,95774.50
2018-09-17T15:02:22.588Z,95772.09
2018-09-17T15:04:48.571Z,95774.70
2018-09-17T15:07:14.614Z,95771.53
2018-09-17T15:09:40.592Z,95770.72
2018-09-17T15:12:06.546Z,95760.64
2018-09-17T15:14:32.548Z,95771.70
2018-09-17T15:16:58.554Z,95772.34
2018-09-17T15:19:24.611Z,95766.98
2018-09-17T15:21:50.584Z,95766.98
2018-09-17T15:24:16.578Z,95767.39
2018-09-17T15:26:42.583Z,95774.70
2018-09-17T15:29:08.564Z,95779.83
2018-09-17T15:31:34.539Z,95779.98
2018-09-17T15:34:00.613Z,95781.61
2018-09-17T15:36:26.538Z,95780.63
2018-09-17T15:38:52.542Z,95774.11
2018-09-17T15:41:18.626Z,95785.23
2018-09-17T15:43:44.512Z,95778.68
2018-09-17T15:46:10.585Z,95781.66
2018-09-17T15:48:36.518Z,95783.33
2018-09-17T15:51:02.526Z,95784.92
2018-09-17T15:53:28.505Z,95793.00
2018-09-17T15:55:54.538Z,95793.41
2018-09-17T15:58:20.521Z,95801.34
2018-09-17T16:00:46.498Z,95796.38
2018-09-17T16:03:12.520Z,95794.59
2018-09-17T16:05:38.519Z,95796.27
2018-09-17T16:08:04.519Z,95791.71
2018-09-17T16:10:30.501Z,95798.22
2018-09-17T16:12:56.489Z,95797.41
2018-09-17T16:15:22.493Z,95792.89
2018-09-17T16:17:48.473Z,95795.65
2018-09-17T16:20:14.474Z,95792.07
2018-09-17T16:22:40.452Z,95792.19
2018-09-17T16:25:06.426Z,95792.14
2018-09-17T16:27:32.424Z,95791.55
2018-09-17T16:29:58.421Z,95786.47
2018-09-17T16:32:24.422Z,95785.16
2018-09-17T16:34:50.455Z,95780.30
2018-09-17T16:37:16.454Z,95783.67
2018-09-17T16:39:42.434Z,95792.33
2018-09-17T16:42:08.440Z,95790.05
2018-09-17T16:44:34.441Z,95795.40
2018-09-17T16:47:00.495Z,95791.70
2018-09-17T16:49:26.414Z,95792.20
2018-09-17T16:51:52.413Z,95800.45
2018-09-17T16:54:18.456Z,95798.93
2018-09-17T16:56:44.401Z,95803.44
2018-09-17T16:59:10.430Z,95801.41
2018-09-17T17:01:36.373Z,95805.10
2018-09-17T17:04:02.380Z,95805.25
2018-09-17T17:06:28.349Z,95809.16
2018-09-17T17:08:54.345Z,95803.37
2018-09-17T17:11:20.436Z,95812.80
2018-09-17T17:13:46.337Z,95812.23
2018-09-17T17:16:12.367Z,95818.12
2018-09-17T17:18:38.682Z,95818.07
2018-09-17T17:21:04.701Z,95824.94
2018-09-17T17:23:30.700Z,95816.19
2018-09-17T17:25:56.735Z,95812.40
2018-09-17T17:28:22.730Z,95818.50
2018-09-17T17:30:48.692Z,95813.33
2018-09-17T17:33:14.695Z,95812.70
2018-09-17T17:35:40.660Z,95815.23
2018-09-17T17:38:06.642Z,95815.02
2018-09-17T17:40:32.801Z,95815.38
2018-09-17T17:42:58.618Z,95824.23
2018-09-17T17:45:24.603Z,95828.78
2018-09-17T17:47:50.578Z,95829.60
2018-09-17T17:50:16.617Z,95830.58
2018-09-17T17:52:42.609Z,95835.12
2018-09-17T17:55:08.587Z,95830.98
2018-09-17T17:57:34.580Z,95827.81
2018-09-17T18:00:00.596Z,95836.31
2018-09-17T18:02:26.564Z,95832.73
2018-09-17T18:04:52.553Z,95833.75
2018-09-17T18:07:18.571Z,95837.89
2018-09-17T18:09:44.532Z,95840.05
2018-09-17T18:12:10.520Z,95849.73
2018-09-17T18:14:36.496Z,95844.61
2018-09-17T18:17:02.494Z,95850.75
2018-09-17T18:19:28.519Z,95851.41
2018-09-17T18:21:54.467Z,95852.19
2018-09-17T18:24:20.493Z,95849.42
2018-09-17T18:26:46.521Z,95852.19
2018-09-17T18:29:12.460Z,95851.00
2018-09-17T18:31:38.446Z,95848.04
2018-09-17T18:34:04.553Z,95851.61
2018-09-17T18:36:30.532Z,95855.55
2018-09-17T18:38:56.632Z,95858.53
2018-09-17T18:41:22.521Z,95852.43
2018-09-17T18:43:48.499Z,95854.43
2018-09-17T18:46:14.530Z,95848.91
2018-09-17T18:48:40.581Z,95850.22
2018-09-17T18:51:06.500Z,95850.53
2018-09-17T18:53:32.455Z,95852.84
2018-09-17T18:55:58.432Z,95850.31
2018-09-17T18:58:24.418Z,95849.91
2018-09-17T19:00:50.424Z,95848.53
2018-09-17T19:03:16.531Z,95839.62
2018-09-17T19:05:42.486Z,95846.28
2018-09-17T19:08:10.616Z,95843.31
2018-09-17T19:10:36.645Z,95845.31
2018-09-17T19:13:02.634Z,95853.80
2018-09-17T19:15:28.614Z,95851.03
2018-09-17T19:17:54.630Z,95854.17
2018-09-17T19:20:20.652Z,95854.53
2018-09-17T19:22:46.667Z,95855.50
2018-09-17T19:25:12.592Z,95854.72
2018-09-17T19:27:38.584Z,95851.41
2018-09-17T19:30:04.585Z,95855.55
2018-09-17T19:32:30.568Z,95864.09
2018-09-17T19:34:56.565Z,95866.66
2018-09-17T19:37:22.555Z,95854.22
2018-09-17T19:39:48.612Z,95859.17
2018-09-17T19:42:14.579Z,95864.91
2018-09-17T19:44:40.556Z,95856.98
2018-09-17T19:47:06.545Z,95858.20
2018-09-17T19:49:32.573Z,95859.02
2018-09-17T19:51:58.595Z,95860.40
2018-09-17T19:54:24.698Z,95858.66
2018-09-17T19:56:50.639Z,95867.98
2018-09-17T19:59:16.617Z,95867.98
2018-09-17T20:01:42.634Z,95865.16
2018-09-17T20:04:08.632Z,95868.09
2018-09-17T20:06:34.679Z,95869.27
2018-09-17T20:09:00.651Z,95869.27
2018-09-17T20:11:26.689Z,95870.23
2018-09-17T20:13:52.669Z,95870.64
2018-09-17T20:16:18.667Z,95875.20
2018-09-17T20:18:44.644Z,95874.38
2018-09-17T20:21:10.624Z,95882.27
2018-09-17T20:23:36.621Z,95882.88
2018-09-17T20:26:02.597Z,95886.02
2018-09-17T20:28:28.615Z,95890.92
2018-09-17T20:30:54.598Z,95888.35
2018-09-17T20:33:20.577Z,95888.52
2018-09-17T20:35:46.596Z,95893.06
2018-09-17T20:38:12.599Z,95893.47
2018-09-17T20:40:38.548Z,95893.06
2018-09-17T20:43:04.571Z,95899.41
2018-09-17T20:45:30.552Z,95896.23
2018-09-17T20:47:56.622Z,95894.05
2018-09-17T20:50:22.560Z,95890.06
2018-09-17T20:52:48.548Z,95892.82
2018-09-17T20:55:14.624Z,95894.20
2018-09-17T20:57:40.905Z,95894.40
2018-09-17T21:00:06.867Z,95893.02
2018-09-17T21:02:32.860Z,95897.78
2018-09-17T21:04:58.841Z,95893.64
2018-09-17T21:07:24.851Z,95894.05
2018-09-17T21:09:50.805Z,95888.67
2018-09-17T21:12:16.807Z,95889.48
2018-09-17T21:14:42.791Z,95891.44
2018-09-17T21:17:08.810Z,95893.23
2018-09-17T21:19:34.897Z,95896.41
2018-09-17T21:22:00.827Z,95900.14
2018-09-17T21:24:26.790Z,95901.72
2018-09-17T21:26:52.789Z,95900.33
2018-09-17T21:29:18.787Z,95904.48
2018-09-17T21:31:44.786Z,95902.69
2018-09-17T21:34:10.769Z,95918.11
2018-09-17T21:36:36.766Z,95912.58
2018-09-17T21:39:02.776Z,95906.27
2018-09-17T21:41:28.776Z,95905.86
2018-09-17T21:43:54.756Z,95909.60
2018-09-17T21:46:20.758Z,95913.18
2018-09-17T21:48:46.763Z,95910.01
2018-09-17T21:51:12.758Z,95905.86
2018-09-17T21:53:38.739Z,95909.20
2018-09-17T21:56:04.715Z,95917.49
2018-09-17T21:58:30.770Z,95908.38
2018-09-17T22:00:56.707Z,95914.73
2018-09-17T22:03:22.696Z,95911.55
2018-09-17T22:05:48.680Z,95915.54
2018-09-17T22:08:14.656Z,95918.47
2018-09-17T22:10:40.637Z,95920.66
2018-09-17T22:13:06.650Z,95920.82
2018-09-17T22:15:32.625Z,95923.59
2018-09-17T22:17:58.596Z,95923.59
2018-09-17T22:20:24.601Z,95914.52
2018-09-17T22:22:50.583Z,95914.11
2018-09-17T22:25:16.561Z,95909.55
2018-09-17T22:27:42.552Z,95910.94
2018-09-17T22:30:08.533Z,95912.07
2018-09-17T22:32:34.572Z,95908.12
2018-09-17T22:35:00.553Z,95911.86
2018-09-17T22:37:26.540Z,95907.87
2018-09-17T22:39:52.521Z,95902.13
2018-09-17T22:42:18.589Z,95910.42
2018-09-17T22:44:44.488Z,95909.20
2018-09-17T22:47:10.457Z,95909.97
2018-09-17T22:49:36.445Z,95907.77
2018-09-17T22:52:02.414Z,95914.68
2018-09-17T22:54:28.400Z,95911.52
2018-09-17T22:56:54.377Z,95911.14
2018-09-17T22:59:20.375Z,95910.89
2018-09-17T23:01:46.354Z,95911.46
2018-09-17T23:04:12.324Z,95912.84
2018-09-17T23:06:38.307Z,95909.86
2018-09-17T23:09:04.285Z,95912.62
2018-09-17T23:11:30.265Z,95914.58
2018-09-17T23:13:56.245Z,95917.34
2018-09-17T23:16:22.228Z,95920.30
2018-09-17T23:18:48.215Z,95921.69
2018-09-17T23:21:14.182Z,95920.30
2018-09-17T23:23:40.192Z,95927.38
2018-09-17T23:26:06.211Z,95925.58
2018-09-17T23:28:32.183Z,95918.86
2018-09-17T23:30:58.189Z,95918.86
2018-09-17T23:33:24.175Z,95923.58
2018-09-17T23:35:50.161Z,95914.06
2018-09-17T23:38:16.147Z,95910.33
2018-09-17T23:40:42.126Z,95906.78
2018-09-17T23:43:08.130Z,95905.97
2018-09-17T23:45:34.146Z,95910.12
2018-09-17T23:48:00.160Z,95903.77
2018-09-17T23:50:26.144Z,95898.81
2018-09-17T23:52:52.128Z,95897.62
2018-09-17T23:55:18.110Z,95899.58
2018-09-17T23:57:44.094Z,95899.98
